Time;durP1;ratioP1;P1;durP2;ratioP2;P2;SDS_P1;SDS_P2;PMS_P1;PMS_P2;Temp;Humidity;BMP_temperature;BMP_pressure;BME280_temperature;BME280_humidity;BME280_pressure;Samples;Min_cycle;Max_cycle;Signal;HPM_P1;HPM_P2
2022/05/21 00:03:22;;;;;;;3.40;2.60;;;;;;;20.33;65.60;98634.15;4477830;77;22134;-85
2022/05/21 00:09:27;;;;;;;12.30;2.55;;;;;;;20.41;65.49;98642.42;4302047;80;21048;-82
2022/05/21 00:15:32;;;;;;;6.65;2.00;;;;;;;20.54;65.27;98633.44;4318083;80;21079;-83
2022/05/21 00:21:33;;;;;;;7.15;2.77;;;;;;;20.40;65.75;98640.88;4313352;80;20983;-82
2022/05/21 00:27:34;;;;;;;5.75;1.07;;;;;;;20.08;66.64;98626.61;4301774;80;21057;-82
2022/05/21 00:33:37;;;;;;;2.65;1.27;;;;;;;19.84;68.54;98644.84;4442114;77;21652;-82
2022/05/21 00:39:38;;;;;;;6.95;1.07;;;;;;;19.68;68.39;98619.98;4384193;80;21006;-83
2022/05/21 00:46:00;;;;;;;3.17;1.02;;;;;;;19.42;68.88;98597.58;4453203;78;21035;-82
2022/05/21 01:00:10;;;;;;;2.40;1.00;;;;;;;19.38;69.17;98549.74;4437119;79;21464;-82
2022/05/21 01:06:28;;;;;;;4.87;1.35;;;;;;;19.30;69.33;98560.11;4266388;80;21060;-81
2022/05/21 01:12:58;;;;;;;4.28;0.88;;;;;;;19.33;70.36;98532.25;4309375;80;20993;-82
2022/05/21 01:19:10;;;;;;;1.85;1.10;;;;;;;19.39;69.86;98536.02;4321735;80;21527;-82
2022/05/21 01:25:38;;;;;;;5.72;1.10;;;;;;;19.35;69.59;98529.03;4300638;81;21463;-81
2022/05/21 01:32:00;;;;;;;3.77;0.90;;;;;;;19.34;69.47;98510.84;4313900;80;21018;-82
2022/05/21 01:38:37;;;;;;;1.10;0.80;;;;;;;19.35;69.39;98510.99;4302959;81;21066;-83
2022/05/21 01:45:21;;;;;;;11.25;1.17;;;;;;;19.33;69.22;98516.98;4418539;77;21986;-82
2022/05/21 01:51:51;;;;;;;1.75;0.90;;;;;;;19.40;68.81;98524.31;4440721;79;20979;-82
2022/05/21 01:58:00;;;;;;;4.35;1.10;;;;;;;19.31;68.70;98525.60;4483319;79;21485;-82
2022/05/21 02:04:15;;;;;;;1.25;0.80;;;;;;;19.19;68.58;98532.66;4473988;79;21012;-82
2022/05/21 02:10:25;;;;;;;3.75;1.20;;;;;;;19.13;68.53;98533.05;4431540;79;21032;-82
2022/05/21 02:23:54;;;;;;;3.27;1.47;;;;;;;18.88;68.91;98541.33;4332940;80;20959;-82
2022/05/21 02:43:16;;;;;;;6.40;2.15;;;;;;;18.33;70.12;98534.15;4381938;80;21500;-82
2022/05/21 02:49:17;;;;;;;6.15;1.70;;;;;;;18.21;70.86;98524.40;4363559;80;21075;-82
2022/05/21 03:02:15;;;;;;;5.28;1.47;;;;;;;18.07;71.18;98534.47;4415482;78;21005;-82
2022/05/21 03:15:49;;;;;;;4.20;1.47;;;;;;;18.05;71.73;98536.89;4421087;79;21075;-82
2022/05/21 03:28:47;;;;;;;5.50;1.90;;;;;;;18.03;72.42;98542.86;4472819;77;21008;-82
2022/05/21 03:41:28;;;;;;;6.08;2.02;;;;;;;18.04;73.23;98544.41;4462043;78;22036;-82
2022/05/21 03:47:51;;;;;;;4.50;2.12;;;;;;;18.11;73.45;98547.01;4236850;77;37838;-82
2022/05/21 03:54:07;;;;;;;5.42;1.67;;;;;;;18.13;73.77;98558.44;4048158;86;21646;-83
2022/05/21 04:06:50;;;;;;;5.42;1.90;;;;;;;18.35;74.19;98552.48;4038084;86;21756;-82
2022/05/21 04:13:33;;;;;;;4.58;1.60;;;;;;;18.44;74.23;98556.84;4045037;86;21065;-83
2022/05/21 04:19:34;;;;;;;5.62;1.87;;;;;;;18.52;74.16;98562.96;4051043;85;21071;-82
2022/05/21 04:25:37;;;;;;;4.72;2.00;;;;;;;18.56;74.31;98567.19;4133985;84;21408;-83
2022/05/21 04:31:49;;;;;;;3.45;2.10;;;;;;;18.46;74.40;98560.56;4135513;84;21075;-82
2022/05/21 04:38:01;;;;;;;6.08;2.52;;;;;;;18.43;74.70;98563.58;4116163;85;21079;-82
2022/05/21 05:04:41;;;;;;;8.33;3.12;;;;;;;18.46;75.61;98597.34;4015836;88;21525;-82
2022/05/21 05:10:57;;;;;;;8.13;3.20;;;;;;;18.41;76.05;98586.02;3968012;88;21243;-83
2022/05/21 05:23:54;;;;;;;5.87;3.00;;;;;;;18.40;76.40;98592.80;4127388;84;21106;-83
2022/05/21 05:30:10;;;;;;;5.90;3.20;;;;;;;18.47;76.41;98584.27;4125762;85;21131;-82
2022/05/21 05:36:18;;;;;;;8.38;3.47;;;;;;;18.52;76.59;98603.16;4124589;84;21523;-81
2022/05/21 05:42:19;;;;;;;6.87;3.37;;;;;;;18.52;76.88;98620.56;4125522;84;21589;-82
2022/05/21 05:48:21;;;;;;;10.35;4.87;;;;;;;18.36;77.72;98640.55;4133807;85;21151;-83
2022/05/21 05:54:28;;;;;;;14.25;5.67;;;;;;;18.02;79.43;98659.62;4093799;84;21075;-83
2022/05/21 06:00:29;;;;;;;8.50;4.90;;;;;;;17.75;80.36;98652.93;4125952;84;22191;-82
2022/05/21 06:06:34;;;;;;;10.98;4.83;;;;;;;17.62;81.39;98649.89;4115912;84;21098;-80
2022/05/21 06:13:14;;;;;;;10.75;5.00;;;;;;;17.63;82.64;98654.20;4128103;84;20996;-82
2022/05/21 06:19:35;;;;;;;12.75;5.12;;;;;;;17.74;83.30;98660.28;4202767;84;21039;-82
2022/05/21 06:25:36;;;;;;;10.95;4.55;;;;;;;17.82;83.84;98663.07;4204262;84;21096;-82
2022/05/21 06:32:07;;;;;;;11.12;5.97;;;;;;;17.90;85.48;98668.63;4194153;84;21043;-82
2022/05/21 06:44:55;;;;;;;14.40;6.15;;;;;;;18.19;85.51;98661.17;4174997;84;21105;-83
2022/05/21 06:51:13;;;;;;;9.20;5.78;;;;;;;18.50;85.82;98663.77;4264893;82;21530;-85
2022/05/21 06:57:14;;;;;;;7.42;5.40;;;;;;;19.04;86.03;98680.55;4272504;82;21058;-83
2022/05/21 07:03:25;;;;;;;12.78;6.15;;;;;;;19.37;86.22;98667.52;4276571;82;21051;-83
2022/05/21 07:09:28;;;;;;;10.63;5.30;;;;;;;19.58;86.12;98677.21;4273933;82;21077;-83
2022/05/21 07:29:58;;;;;;;4.85;3.60;;;;;;;20.69;85.57;98682.40;4271355;82;20994;-83
2022/05/21 07:36:07;;;;;;;5.12;3.12;;;;;;;20.27;84.71;98711.59;4254490;81;21077;-83
2022/05/21 07:42:12;;;;;;;9.18;3.83;;;;;;;19.44;83.42;98710.95;4275072;82;21410;-84
2022/05/21 07:54:52;;;;;;;18.02;3.08;;;;;;;19.41;82.96;98738.20;4115391;85;21052;-81
2022/05/21 08:01:00;;;;;;;7.67;2.17;;;;;;;19.46;80.29;98754.31;4213538;83;20999;-83
2022/05/21 08:07:03;;;;;;;10.88;3.70;;;;;;;19.60;77.87;98750.53;4124180;85;21050;-83
2022/05/21 08:13:30;;;;;;;8.05;2.45;;;;;;;19.78;76.71;98752.80;4179301;83;21174;-83
2022/05/21 08:19:38;;;;;;;4.65;1.60;;;;;;;20.16;76.00;98753.63;4159166;84;21774;-82
2022/05/21 08:32:17;;;;;;;6.28;1.55;;;;;;;20.61;70.61;98765.91;4191177;83;21060;-83
2022/05/21 08:38:25;;;;;;;5.70;0.82;;;;;;;20.37;69.56;98772.43;4177438;83;21080;-82
2022/05/21 09:07:36;;;;;;;4.35;0.80;;;;;;;20.54;60.07;98798.09;4660835;74;23250;-81
2022/05/21 09:14:00;;;;;;;9.08;0.80;;;;;;;20.72;59.58;98812.98;4554548;75;21813;-84
2022/05/21 09:20:06;;;;;;;8.28;0.80;;;;;;;20.98;56.65;98806.20;4571596;75;21005;-83
2022/05/21 09:26:13;;;;;;;4.72;0.75;;;;;;;21.48;57.61;98815.78;4609488;75;21053;-85
2022/05/21 09:32:36;;;;;;;7.53;0.70;;;;;;;21.99;56.27;98823.28;4597730;75;21053;-83
2022/05/21 09:39:24;;;;;;;6.37;1.17;;;;;;;22.32;52.18;98810.46;4586368;75;21481;-85
2022/05/21 09:45:59;;;;;;;4.85;0.60;;;;;;;22.54;53.45;98806.23;4334588;82;21981;-85
2022/05/21 09:52:21;;;;;;;7.75;0.75;;;;;;;22.89;53.05;98803.41;4374143;79;21025;-86
2022/05/21 09:58:34;;;;;;;3.45;1.10;;;;;;;23.41;52.34;98806.00;4389975;75;21001;-83
2022/05/21 10:11:39;;;;;;;8.63;1.10;;;;;;;24.28;50.35;98818.01;4609499;75;21102;-83
2022/05/21 10:18:02;;;;;;;5.45;0.68;;;;;;;24.45;49.29;98816.39;4605507;75;20984;-83
2022/05/21 10:24:49;;;;;;;3.42;0.72;;;;;;;24.68;47.20;98791.90;4593767;75;21016;-83
2022/05/21 10:38:03;;;;;;;2.83;0.60;;;;;;;24.87;45.03;98821.21;4587455;75;21722;-83
2022/05/21 10:44:38;;;;;;;2.15;0.60;;;;;;;25.30;45.13;98814.39;4597285;75;21488;-85
2022/05/21 11:42:16;;;;;;;2.85;0.70;;;;;;;25.90;39.51;98819.68;4072516;86;20998;-84
2022/05/21 12:16:52;;;;;;;2.45;0.60;;;;;;;24.54;39.73;98796.00;4682386;76;20968;-86
2022/05/21 12:43:53;;;;;;;3.45;0.47;;;;;;;23.64;39.29;98817.94;4401556;79;21011;-83
2022/05/21 12:50:03;;;;;;;2.58;0.70;;;;;;;23.74;38.83;98820.11;4324158;81;22474;-83
2022/05/21 13:03:15;;;;;;;3.70;0.50;;;;;;;22.90;40.14;98821.70;4317455;78;21085;-85
2022/05/21 13:09:24;;;;;;;3.33;0.70;;;;;;;23.02;40.52;98809.02;4572378;75;21109;-85
2022/05/21 13:15:35;;;;;;;3.00;0.80;;;;;;;23.23;40.53;98823.48;4544422;76;20989;-85
2022/05/21 13:22:15;;;;;;;3.52;0.60;;;;;;;23.02;40.68;98819.42;4564041;76;21011;-81
2022/05/21 13:50:06;;;;;;;3.85;0.60;;;;;;;22.77;41.08;98843.39;4034082;85;21481;-81
2022/05/21 14:11:29;;;;;;;4.53;0.80;;;;;;;22.85;40.28;98837.04;4465992;78;21024;-85
2022/05/21 14:32:37;;;;;;;1.00;0.40;;;;;;;22.01;40.00;98837.55;4065309;85;21043;-83
2022/05/21 14:45:43;;;;;;;4.33;0.88;;;;;;;21.84;40.49;98833.41;4159667;83;21552;-83
2022/05/21 14:58:27;;;;;;;5.05;0.68;;;;;;;21.68;40.47;98848.89;4309858;77;21069;-83
2022/05/21 15:04:32;;;;;;;1.20;0.65;;;;;;;21.38;40.51;98843.98;4512875;77;20997;-84
2022/05/21 15:10:45;;;;;;;3.98;1.07;;;;;;;21.18;41.16;98841.50;4493536;77;21588;-84
2022/05/21 15:16:48;;;;;;;1.62;0.80;;;;;;;20.96;41.43;98842.04;4497471;77;21027;-83
2022/05/21 15:22:59;;;;;;;4.58;0.90;;;;;;;20.79;41.35;98849.53;4514314;77;20999;-85
2022/05/21 15:36:18;;;;;;;3.45;1.65;;;;;;;20.48;41.79;98846.55;4503548;77;21038;-85
2022/05/21 15:49:12;;;;;;;3.25;1.00;;;;;;;20.35;42.52;98840.19;4464951;78;21620;-84
2022/05/21 15:55:15;;;;;;;3.70;0.93;;;;;;;20.24;42.45;98848.08;4427610;78;21163;-82
2022/05/21 16:01:42;;;;;;;4.30;0.82;;;;;;;19.96;42.72;98865.55;4441358;79;21480;-83
2022/05/21 16:07:51;;;;;;;1.85;1.10;;;;;;;19.68;42.96;98869.12;4477843;79;21078;-84
2022/05/21 16:14:03;;;;;;;4.55;1.05;;;;;;;19.50;43.15;98860.48;4499013;77;21482;-84
2022/05/21 16:33:08;;;;;;;2.17;0.57;;;;;;;19.42;43.38;98873.01;4476243;77;21037;-83
2022/05/21 16:39:19;;;;;;;6.15;0.80;;;;;;;19.22;43.67;98879.23;4507849;77;20982;-84
2022/05/21 16:45:29;;;;;;;5.08;0.93;;;;;;;19.03;43.78;98880.13;4517144;77;20990;-83
2022/05/21 16:58:13;;;;;;;6.53;0.80;;;;;;;19.20;43.70;98880.29;4513115;77;21508;-83
2022/05/21 17:04:19;;;;;;;2.15;0.98;;;;;;;19.05;43.79;98881.24;4504705;78;21002;-83
2022/05/21 17:17:14;;;;;;;3.22;1.42;;;;;;;18.59;43.99;98871.23;4459880;79;20968;-84
2022/05/21 17:23:41;;;;;;;4.60;1.60;;;;;;;18.43;43.91;98867.05;4532628;78;20996;-84
2022/05/21 17:36:21;;;;;;;5.40;1.62;;;;;;;18.11;43.79;98873.87;4191830;82;21027;-84
2022/05/21 17:42:48;;;;;;;4.30;1.07;;;;;;;17.98;43.93;98866.64;4198959;83;21004;-83
2022/05/21 17:49:12;;;;;;;;;;;;;;;17.93;43.70;98869.91;4222393;81;21098;-82
2022/05/21 17:55:37;;;;;;;2.22;0.80;;;;;;;17.84;43.57;98874.62;4197502;83;20113;-82
2022/05/21 18:02:12;;;;;;;4.27;0.80;;;;;;;17.77;43.90;98862.31;4522239;78;20936;-83
2022/05/21 18:08:48;;;;;;;1.65;1.02;;;;;;;17.73;44.13;98864.98;4454472;78;20932;-82
2022/05/21 18:19:18;;;;;;;3.95;1.25;;;;;;;17.62;44.40;98865.16;4457194;78;20988;-83
2022/05/21 18:21:25;;;;;;;2.03;1.20;;;;;;;17.43;44.81;98864.50;4522853;76;20978;-82
2022/05/21 18:27:33;;;;;;;3.02;1.25;;;;;;;17.26;45.27;98866.22;4465294;77;21947;-81
2022/05/21 18:33:38;;;;;;;3.67;1.12;;;;;;;17.10;45.64;98877.95;4488131;76;20963;-82
2022/05/21 18:40:03;;;;;;;3.67;1.10;;;;;;;16.96;46.24;98878.19;4409349;78;20978;-82
2022/05/21 18:46:22;;;;;;;3.60;1.40;;;;;;;16.84;46.36;98880.14;4485332;79;20967;-81
2022/05/21 18:52:34;;;;;;;3.90;1.52;;;;;;;16.69;46.93;98896.19;4464226;79;21570;-82
2022/05/21 18:59:03;;;;;;;15.78;3.60;;;;;;;16.48;47.90;98897.07;4485258;79;20994;-82
2022/05/21 19:05:53;;;;;;;9.78;2.50;;;;;;;16.27;48.43;98896.72;4457073;78;20959;-82
2022/05/21 19:19:36;;;;;;;;;;;;;;;;;;;;;
2022/05/21 19:26:22;;;;;;;5.37;1.70;;;;;;;16.07;49.98;98899.95;4340457;80;21516;-82
2022/05/21 19:32:52;;;;;;;7.85;2.12;;;;;;;16.07;49.98;98908.85;4376281;81;21011;-82
2022/05/21 20:05:46;;;;;;;4.37;2.22;;;;;;;15.57;51.96;98923.78;4129703;81;21019;-82
2022/05/21 20:11:51;;;;;;;5.37;2.12;;;;;;;15.50;51.73;98927.38;4498643;77;21058;-82
2022/05/21 20:18:11;;;;;;;6.95;2.08;;;;;;;15.43;51.75;98926.67;4557098;77;21402;-81
2022/05/21 20:24:28;;;;;;;3.10;2.05;;;;;;;15.34;51.99;98927.13;4533085;78;21018;-81
2022/05/21 20:30:32;;;;;;;3.67;1.77;;;;;;;15.26;52.48;98927.59;4508483;76;21015;-82
2022/05/21 20:36:40;;;;;;;5.75;2.60;;;;;;;15.05;53.20;98923.65;4526945;76;21048;-81
2022/05/21 20:42:42;;;;;;;4.70;2.12;;;;;;;14.96;53.35;98926.06;4568759;76;21508;-81
2022/05/21 20:55:05;;;;;;;3.17;1.57;;;;;;;14.72;54.12;98929.17;4539956;76;21680;-80
2022/05/21 21:01:06;;;;;;;2.65;1.62;;;;;;;14.65;54.01;98929.23;4571131;76;21206;-84
2022/05/21 21:07:18;;;;;;;4.05;1.85;;;;;;;14.60;54.33;98923.34;4610563;76;20933;-81
2022/05/21 21:14:04;;;;;;;5.53;1.82;;;;;;;14.32;55.44;98920.75;4547054;76;20997;-82
2022/05/21 21:20:17;;;;;;;3.50;1.92;;;;;;;14.23;55.98;98919.80;4163167;84;21090;-82
2022/05/21 21:26:18;;;;;;;4.65;2.42;;;;;;;14.07;56.54;98931.27;4170817;83;21043;-81
2022/05/21 21:32:23;;;;;;;4.37;1.95;;;;;;;13.93;57.29;98919.53;4424896;78;20974;-81
2022/05/21 21:45:39;;;;;;;3.62;2.00;;;;;;;13.66;58.46;98924.72;4479604;76;21034;-82
2022/05/21 21:51:54;;;;;;;7.30;2.58;;;;;;;13.55;58.79;98920.41;4481017;76;20975;-81
2022/05/21 22:05:07;;;;;;;11.93;5.00;;;;;;;13.39;59.87;98923.58;4403726;78;21536;-82
2022/05/21 22:11:25;;;;;;;8.85;4.12;;;;;;;13.44;59.84;98920.44;4428025;76;20999;-82
2022/05/21 22:17:30;;;;;;;8.48;5.25;;;;;;;13.53;59.79;98927.68;4472131;76;22172;-82
2022/05/21 22:23:54;;;;;;;6.90;3.62;;;;;;;13.58;59.92;98927.28;4610000;76;21013;-83
2022/05/21 22:30:27;;;;;;;5.12;1.70;;;;;;;13.63;59.79;98933.77;4500952;77;20991;-83
2022/05/21 22:36:43;;;;;;;6.22;1.82;;;;;;;13.71;59.73;98940.03;4252341;83;21144;-82
2022/05/21 22:43:07;;;;;;;3.23;1.37;;;;;;;13.85;59.45;98946.28;4263555;82;21056;-82
2022/05/21 22:49:10;;;;;;;5.97;1.50;;;;;;;13.92;59.14;98938.00;4305547;82;21308;-83
2022/05/21 22:55:46;;;;;;;5.55;1.70;;;;;;;13.90;59.04;98940.96;4319882;82;21035;-82
2022/05/21 23:02:32;;;;;;;3.90;1.05;;;;;;;13.90;58.89;98940.38;4170751;85;21015;-83
2022/05/21 23:09:09;;;;;;;;;;;;;;;13.92;58.78;98935.86;4166832;83;21062;-82
2022/05/21 23:28:27;;;;;;;4.33;1.35;;;;;;;13.82;58.83;98933.91;4196583;79;21112;-81
2022/05/21 23:35:19;;;;;;;3.67;1.47;;;;;;;13.76;58.87;98923.12;4436989;78;21019;-81
2022/05/21 23:41:26;;;;;;;5.35;1.62;;;;;;;13.67;59.13;98923.52;4369459;79;21067;-82
2022/05/21 23:47:51;;;;;;;2.85;1.40;;;;;;;13.59;59.21;98923.34;4375320;79;21626;-83
2022/05/21 23:54:25;;;;;;;3.98;1.22;;;;;;;13.56;59.59;98931.63;4393206;79;21030;-82
